Time;durP1;ratioP1;P1;durP2;ratioP2;P2;SDS_P1;SDS_P2;PMS_P1;PMS_P2;Temp;Humidity;BMP_temperature;BMP_pressure;BME280_temperature;BME280_humidity;BME280_pressure;Samples;Min_cycle;Max_cycle;Signal;HPM_P1;HPM_P2
2022/10/22 00:00:37;;;;;;;0.45;0.40;;;;;;;;;;5062007;28;20052;-91
2022/10/22 00:03:05;;;;;;;1.20;0.35;;;;;;;;;;5071066;28;20424;-91
2022/10/22 00:05:33;;;;;;;0.55;0.55;;;;;;;;;;5067145;28;20076;-91
2022/10/22 00:08:02;;;;;;;1.08;0.30;;;;;;;;;;5070745;28;20063;-91
2022/10/22 00:10:30;;;;;;;0.25;0.25;;;;;;;;;;5052767;28;20418;-90
2022/10/22 00:12:58;;;;;;;0.08;0.08;;;;;;;;;;5062791;28;20059;-91
2022/10/22 00:15:28;;;;;;;1.48;0.50;;;;;;;;;;5060251;28;20055;-91
2022/10/22 00:17:56;;;;;;;0.75;0.40;;;;;;;;;;5067177;28;20060;-91
2022/10/22 00:20:24;;;;;;;0.63;0.47;;;;;;;;;;5074566;28;20071;-91
2022/10/22 00:22:53;;;;;;;0.20;0.20;;;;;;;;;;5073897;28;20048;-91
2022/10/22 00:25:21;;;;;;;3.63;0.38;;;;;;;;;;5058978;28;20453;-91
2022/10/22 00:27:49;;;;;;;0.25;0.25;;;;;;;;;;5071055;28;20044;-90
2022/10/22 00:30:18;;;;;;;1.13;0.43;;;;;;;;;;5068353;28;20057;-89
2022/10/22 00:32:47;;;;;;;0.75;0.28;;;;;;;;;;5061248;28;20544;-91
2022/10/22 00:35:16;;;;;;;1.35;0.50;;;;;;;;;;5066526;28;20473;-89
2022/10/22 00:37:44;;;;;;;0.75;0.60;;;;;;;;;;5069134;28;20058;-92
2022/10/22 00:40:13;;;;;;;5.05;0.40;;;;;;;;;;5068907;28;20040;-95
2022/10/22 00:42:41;;;;;;;0.40;0.32;;;;;;;;;;5062064;28;20055;-91
2022/10/22 00:45:18;;;;;;;1.55;0.95;;;;;;;;;;5066164;28;20048;-92
2022/10/22 00:47:50;;;;;;;5.88;1.02;;;;;;;;;;5059886;28;20079;-95
2022/10/22 00:50:19;;;;;;;0.73;0.35;;;;;;;;;;5059421;28;20056;-92
2022/10/22 00:52:48;;;;;;;0.40;0.40;;;;;;;;;;5067125;28;20052;-90
2022/10/22 00:55:16;;;;;;;0.98;0.40;;;;;;;;;;5067152;28;20051;-90
2022/10/22 00:57:45;;;;;;;0.43;0.30;;;;;;;;;;5060644;28;20048;-91
2022/10/22 01:00:14;;;;;;;0.40;0.20;;;;;;;;;;5070952;28;20045;-88
2022/10/22 01:02:42;;;;;;;0.98;0.40;;;;;;;;;;5060516;28;20056;-93
2022/10/22 01:05:12;;;;;;;0.30;0.25;;;;;;;;;;5065844;28;20406;-88
2022/10/22 01:07:43;;;;;;;0.60;0.38;;;;;;;;;;5065744;28;20379;-90
2022/10/22 01:10:15;;;;;;;0.90;0.50;;;;;;;;;;5068537;28;20061;-89
2022/10/22 01:12:45;;;;;;;0.40;0.40;;;;;;;;;;5064956;28;20052;-92
2022/10/22 01:15:18;;;;;;;0.17;0.17;;;;;;;;;;5069797;28;20044;-90
2022/10/22 01:17:51;;;;;;;0.50;0.30;;;;;;;;;;5071436;28;20104;-87
2022/10/22 01:20:27;;;;;;;3.38;0.45;;;;;;;;;;5063270;28;20052;-88
2022/10/22 01:23:01;;;;;;;0.17;0.17;;;;;;;;;;5072604;28;20052;-89
2022/10/22 01:25:33;;;;;;;2.40;0.30;;;;;;;;;;5064175;28;20086;-88
2022/10/22 01:28:06;;;;;;;0.05;0.05;;;;;;;;;;5064462;28;20053;-90
2022/10/22 01:30:37;;;;;;;0.38;0.20;;;;;;;;;;5067373;28;20056;-91
2022/10/22 01:33:07;;;;;;;0.10;0.10;;;;;;;;;;5058134;28;20040;-91
2022/10/22 01:35:36;;;;;;;0.50;0.25;;;;;;;;;;5069574;28;20045;-95
2022/10/22 01:38:05;;;;;;;0.28;0.20;;;;;;;;;;5063583;28;20469;-93
2022/10/22 01:40:34;;;;;;;0.13;0.13;;;;;;;;;;5064178;28;20045;-93
2022/10/22 01:43:03;;;;;;;0.10;0.10;;;;;;;;;;5061468;28;20041;-91
2022/10/22 01:45:35;;;;;;;0.13;0.10;;;;;;;;;;5071992;28;20053;-92
2022/10/22 01:48:09;;;;;;;0.30;0.15;;;;;;;;;;5066516;28;20170;-92
2022/10/22 01:50:44;;;;;;;0.17;0.17;;;;;;;;;;5068128;28;20135;-94
2022/10/22 01:53:18;;;;;;;0.60;0.30;;;;;;;;;;5073584;28;20051;-96
2022/10/22 01:55:54;;;;;;;0.47;0.15;;;;;;;;;;5073981;28;20055;-93
2022/10/22 01:58:25;;;;;;;0.13;0.10;;;;;;;;;;5071255;28;20072;-96
2022/10/22 02:00:57;;;;;;;0.05;0.05;;;;;;;;;;5075111;28;20049;-95
2022/10/22 02:03:29;;;;;;;0.00;0.00;;;;;;;;;;5065983;28;20049;-95
2022/10/22 02:06:00;;;;;;;0.28;0.15;;;;;;;;;;5070814;28;20049;-96
2022/10/22 02:08:30;;;;;;;0.30;0.10;;;;;;;;;;5067982;28;20055;-96
2022/10/22 02:10:59;;;;;;;0.05;0.03;;;;;;;;;;5060600;28;20040;-95
2022/10/22 02:13:29;;;;;;;0.50;0.25;;;;;;;;;;5075489;28;20065;-95
2022/10/22 02:15:57;;;;;;;0.10;0.10;;;;;;;;;;5065581;28;20055;-94
2022/10/22 02:18:29;;;;;;;0.20;0.20;;;;;;;;;;5074554;28;20127;-95
2022/10/22 02:20:58;;;;;;;0.10;0.10;;;;;;;;;;5076709;28;20048;-92
2022/10/22 02:23:27;;;;;;;0.40;0.15;;;;;;;;;;5085831;23;20082;-87
2022/10/22 02:26:00;;;;;;;0.00;0.00;;;;;;;;;;5073501;28;20396;-86
2022/10/22 02:28:32;;;;;;;1.33;0.13;;;;;;;;;;5069479;28;20086;-85
2022/10/22 02:31:04;;;;;;;0.10;0.10;;;;;;;;;;5072312;28;20044;-86
2022/10/22 02:33:37;;;;;;;0.10;0.10;;;;;;;;;;5072856;28;20052;-86
2022/10/22 02:36:07;;;;;;;0.65;0.22;;;;;;;;;;5071403;28;20044;-87
2022/10/22 02:38:36;;;;;;;0.15;0.10;;;;;;;;;;5071509;28;20047;-87
2022/10/22 02:41:05;;;;;;;0.10;0.10;;;;;;;;;;5070184;28;20044;-84
2022/10/22 02:43:42;;;;;;;0.43;0.10;;;;;;;;;;5070986;28;20055;-87
2022/10/22 02:46:10;;;;;;;0.00;0.00;;;;;;;;;;5071671;28;20056;-86
2022/10/22 02:48:40;;;;;;;0.52;0.10;;;;;;;;;;5072368;28;20048;-86
2022/10/22 02:51:09;;;;;;;0.10;0.10;;;;;;;;;;5071931;28;20052;-86
2022/10/22 02:53:37;;;;;;;0.00;0.00;;;;;;;;;;5072459;28;20084;-86
2022/10/22 02:56:06;;;;;;;0.25;0.20;;;;;;;;;;5072607;28;20044;-87
2022/10/22 02:58:34;;;;;;;0.57;0.20;;;;;;;;;;5072817;28;20052;-87
2022/10/22 03:01:03;;;;;;;0.32;0.17;;;;;;;;;;5071645;28;20067;-87
2022/10/22 03:03:31;;;;;;;0.10;0.10;;;;;;;;;;5067463;28;20056;-86
2022/10/22 03:06:01;;;;;;;0.20;0.20;;;;;;;;;;5070179;28;20555;-87
2022/10/22 03:08:29;;;;;;;0.20;0.20;;;;;;;;;;5065910;28;20053;-86
2022/10/22 03:10:58;;;;;;;1.15;0.40;;;;;;;;;;5068356;28;20408;-87
2022/10/22 03:13:26;;;;;;;0.70;0.20;;;;;;;;;;5069398;28;20044;-85
2022/10/22 03:15:54;;;;;;;1.25;0.47;;;;;;;;;;5068557;28;20412;-86
2022/10/22 03:18:23;;;;;;;0.20;0.17;;;;;;;;;;5067130;28;20044;-84
2022/10/22 03:20:51;;;;;;;0.10;0.10;;;;;;;;;;5060938;28;20048;-87
2022/10/22 03:23:21;;;;;;;0.52;0.20;;;;;;;;;;5066581;28;20059;-87
2022/10/22 03:25:50;;;;;;;0.32;0.30;;;;;;;;;;5065883;28;20044;-87
2022/10/22 03:28:19;;;;;;;0.40;0.20;;;;;;;;;;5067692;28;20052;-87
2022/10/22 03:30:47;;;;;;;0.10;0.10;;;;;;;;;;5065278;28;20041;-87
2022/10/22 03:33:15;;;;;;;0.00;0.00;;;;;;;;;;5067752;28;20052;-87
2022/10/22 03:35:45;;;;;;;0.35;0.20;;;;;;;;;;5066746;28;20492;-87
2022/10/22 03:38:15;;;;;;;1.35;0.20;;;;;;;;;;5067174;28;20049;-85
2022/10/22 03:40:45;;;;;;;0.85;0.22;;;;;;;;;;5064456;28;20052;-86
2022/10/22 03:43:13;;;;;;;0.10;0.10;;;;;;;;;;5067207;28;20482;-86
2022/10/22 03:45:42;;;;;;;0.10;0.10;;;;;;;;;;5065917;28;20040;-87
2022/10/22 03:48:10;;;;;;;0.20;0.10;;;;;;;;;;5068542;28;20044;-86
2022/10/22 03:50:38;;;;;;;0.20;0.20;;;;;;;;;;5067695;28;20055;-86
2022/10/22 03:53:09;;;;;;;0.43;0.43;;;;;;;;;;5063498;28;20044;-87
2022/10/22 03:55:38;;;;;;;0.22;0.20;;;;;;;;;;5066485;28;20063;-87
2022/10/22 03:58:07;;;;;;;0.93;0.10;;;;;;;;;;5065771;28;20051;-87
2022/10/22 04:00:36;;;;;;;0.52;0.32;;;;;;;;;;5063149;28;20057;-87
2022/10/22 04:03:04;;;;;;;0.10;0.10;;;;;;;;;;5062103;28;20040;-87
2022/10/22 04:05:33;;;;;;;0.20;0.20;;;;;;;;;;5066981;28;20558;-87
2022/10/22 04:08:01;;;;;;;1.00;0.28;;;;;;;;;;5061424;28;20036;-87
2022/10/22 04:10:30;;;;;;;0.10;0.10;;;;;;;;;;5062862;28;20533;-87
2022/10/22 04:12:58;;;;;;;0.70;0.70;;;;;;;;;;5066212;28;20061;-86
2022/10/22 04:15:28;;;;;;;0.22;0.22;;;;;;;;;;5067518;28;20055;-86
2022/10/22 04:17:56;;;;;;;0.00;0.00;;;;;;;;;;5064072;28;20048;-87
2022/10/22 04:20:25;;;;;;;0.00;0.00;;;;;;;;;;5064220;28;20053;-87
2022/10/22 04:22:53;;;;;;;0.05;0.05;;;;;;;;;;5064020;28;20057;-88
2022/10/22 04:25:21;;;;;;;0.20;0.20;;;;;;;;;;5066455;28;20060;-87
2022/10/22 04:27:50;;;;;;;0.20;0.20;;;;;;;;;;5065922;28;20077;-87
2022/10/22 04:30:18;;;;;;;0.22;0.20;;;;;;;;;;5065310;28;20055;-87
2022/10/22 04:32:48;;;;;;;0.10;0.10;;;;;;;;;;5055785;28;20052;-87
2022/10/22 04:35:17;;;;;;;0.20;0.20;;;;;;;;;;5034631;28;20045;-88
2022/10/22 04:37:45;;;;;;;0.08;0.08;;;;;;;;;;5066352;28;20076;-88
2022/10/22 04:40:13;;;;;;;6.57;0.30;;;;;;;;;;5067717;28;20128;-85
2022/10/22 04:42:42;;;;;;;0.20;0.20;;;;;;;;;;5063254;28;20057;-87
2022/10/22 04:45:11;;;;;;;0.20;0.20;;;;;;;;;;5065363;28;20094;-87
2022/10/22 04:47:39;;;;;;;0.22;0.22;;;;;;;;;;5063203;28;20060;-87
2022/10/22 04:50:09;;;;;;;0.10;0.10;;;;;;;;;;5062896;28;20048;-87
2022/10/22 04:52:38;;;;;;;7.05;0.13;;;;;;;;;;5059462;28;20139;-87
2022/10/22 04:55:06;;;;;;;1.02;0.20;;;;;;;;;;5063854;28;20052;-88
2022/10/22 04:57:34;;;;;;;0.10;0.10;;;;;;;;;;5066181;28;20044;-87
2022/10/22 05:00:03;;;;;;;0.17;0.17;;;;;;;;;;5071440;28;20475;-86
2022/10/22 05:02:31;;;;;;;0.10;0.10;;;;;;;;;;5051393;28;20412;-87
2022/10/22 05:04:59;;;;;;;0.20;0.20;;;;;;;;;;5068304;28;20045;-87
2022/10/22 05:07:29;;;;;;;0.50;0.32;;;;;;;;;;5070469;28;20075;-87
2022/10/22 05:09:57;;;;;;;0.20;0.20;;;;;;;;;;5054531;28;20504;-87
2022/10/22 05:12:29;;;;;;;1.55;0.15;;;;;;;;;;5060554;28;20058;-87
2022/10/22 05:14:58;;;;;;;0.57;0.30;;;;;;;;;;5057861;28;20052;-87
2022/10/22 05:17:26;;;;;;;0.10;0.10;;;;;;;;;;5070406;28;20052;-87
2022/10/22 05:19:54;;;;;;;0.10;0.10;;;;;;;;;;5067304;28;20048;-85
2022/10/22 05:22:22;;;;;;;0.05;0.05;;;;;;;;;;5056149;28;20071;-85
2022/10/22 05:24:52;;;;;;;0.65;0.10;;;;;;;;;;5058131;28;20512;-87
2022/10/22 05:27:20;;;;;;;0.00;0.00;;;;;;;;;;5054429;28;20155;-87
2022/10/22 05:29:49;;;;;;;0.00;0.00;;;;;;;;;;5071685;28;20064;-86
2022/10/22 05:32:17;;;;;;;0.00;0.00;;;;;;;;;;5070786;28;20052;-87
2022/10/22 05:34:45;;;;;;;0.20;0.20;;;;;;;;;;5070410;28;20051;-87
2022/10/22 05:37:14;;;;;;;0.43;0.10;;;;;;;;;;5056647;28;20057;-86
2022/10/22 05:39:42;;;;;;;0.08;0.08;;;;;;;;;;5063782;28;20127;-86
2022/10/22 05:42:12;;;;;;;0.00;0.00;;;;;;;;;;5061834;28;20055;-87
2022/10/22 05:44:40;;;;;;;0.00;0.00;;;;;;;;;;5062546;28;20477;-88
2022/10/22 05:47:08;;;;;;;0.13;0.10;;;;;;;;;;5067364;28;20048;-87
2022/10/22 05:49:37;;;;;;;0.10;0.05;;;;;;;;;;5066635;28;20485;-87
2022/10/22 05:52:05;;;;;;;0.22;0.08;;;;;;;;;;5062395;28;20550;-87
2022/10/22 05:54:34;;;;;;;0.00;0.00;;;;;;;;;;5063318;28;20074;-87
2022/10/22 05:57:02;;;;;;;0.00;0.00;;;;;;;;;;5070246;28;20543;-86
2022/10/22 05:59:32;;;;;;;0.10;0.10;;;;;;;;;;5069215;28;20059;-87
2022/10/22 06:02:00;;;;;;;0.08;0.08;;;;;;;;;;5069351;28;20473;-87
2022/10/22 06:04:29;;;;;;;0.30;0.30;;;;;;;;;;5069942;28;20040;-86
2022/10/22 06:06:58;;;;;;;0.00;0.00;;;;;;;;;;5067307;28;20082;-87
2022/10/22 06:09:28;;;;;;;0.65;0.10;;;;;;;;;;5061793;28;20057;-86
2022/10/22 06:11:57;;;;;;;0.00;0.00;;;;;;;;;;5066398;28;20063;-87
2022/10/22 06:14:25;;;;;;;0.20;0.10;;;;;;;;;;5070487;28;20048;-87
2022/10/22 06:16:55;;;;;;;2.42;0.10;;;;;;;;;;5067531;28;20063;-87
2022/10/22 06:19:25;;;;;;;0.10;0.10;;;;;;;;;;5052410;28;20052;-87
2022/10/22 06:21:54;;;;;;;0.43;0.43;;;;;;;;;;5067550;28;20048;-85
2022/10/22 06:24:22;;;;;;;0.05;0.03;;;;;;;;;;5069595;28;20040;-86
2022/10/22 06:26:50;;;;;;;0.52;0.13;;;;;;;;;;5066510;28;20075;-87
2022/10/22 06:29:19;;;;;;;0.10;0.10;;;;;;;;;;5065859;28;20056;-87
2022/10/22 06:31:47;;;;;;;0.00;0.00;;;;;;;;;;5067049;28;20055;-86
2022/10/22 06:34:17;;;;;;;3.20;1.13;;;;;;;;;;5069490;28;20048;-87
2022/10/22 06:36:46;;;;;;;0.30;0.10;;;;;;;;;;5062794;28;20110;-87
2022/10/22 06:39:15;;;;;;;0.17;0.17;;;;;;;;;;5067177;28;20400;-87
2022/10/22 06:41:44;;;;;;;0.10;0.10;;;;;;;;;;5061309;28;20041;-86
2022/10/22 06:44:16;;;;;;;0.93;0.15;;;;;;;;;;5067324;28;20049;-87
2022/10/22 06:46:45;;;;;;;0.20;0.20;;;;;;;;;;5069350;28;20084;-87
2022/10/22 06:49:14;;;;;;;0.30;0.30;;;;;;;;;;5064215;28;20056;-88
2022/10/22 06:51:45;;;;;;;0.17;0.17;;;;;;;;;;5067056;28;20048;-85
2022/10/22 06:54:13;;;;;;;0.22;0.22;;;;;;;;;;5068216;28;20052;-87
2022/10/22 06:56:42;;;;;;;0.10;0.10;;;;;;;;;;5068732;28;20492;-86
2022/10/22 06:59:10;;;;;;;0.20;0.10;;;;;;;;;;5061829;28;20515;-87
2022/10/22 07:01:39;;;;;;;0.95;0.10;;;;;;;;;;5065069;28;20492;-86
2022/10/22 07:04:08;;;;;;;0.20;0.20;;;;;;;;;;5065217;28;20564;-87
2022/10/22 07:06:38;;;;;;;0.20;0.20;;;;;;;;;;5067626;28;20321;-87
2022/10/22 07:09:07;;;;;;;0.03;0.03;;;;;;;;;;5068256;28;20047;-87
2022/10/22 07:11:39;;;;;;;0.10;0.10;;;;;;;;;;5067454;28;20460;-88
2022/10/22 07:14:07;;;;;;;0.20;0.10;;;;;;;;;;5067062;28;20510;-88
2022/10/22 07:16:36;;;;;;;0.10;0.10;;;;;;;;;;5068266;28;20052;-87
2022/10/22 07:19:06;;;;;;;0.25;0.25;;;;;;;;;;5063732;28;20041;-87
2022/10/22 07:21:35;;;;;;;0.10;0.10;;;;;;;;;;5063087;28;20389;-87
2022/10/22 07:24:04;;;;;;;0.47;0.08;;;;;;;;;;5065460;28;20056;-87
2022/10/22 07:26:33;;;;;;;0.10;0.10;;;;;;;;;;5063396;28;20041;-87
2022/10/22 07:29:02;;;;;;;0.38;0.17;;;;;;;;;;5066827;28;20060;-87
2022/10/22 07:31:31;;;;;;;0.10;0.10;;;;;;;;;;5065573;28;20058;-87
2022/10/22 07:33:59;;;;;;;0.38;0.17;;;;;;;;;;5067245;28;20127;-87
2022/10/22 07:36:27;;;;;;;0.15;0.10;;;;;;;;;;5067226;28;20048;-86
2022/10/22 07:38:56;;;;;;;0.30;0.08;;;;;;;;;;5068145;28;20056;-87
2022/10/22 07:41:25;;;;;;;0.88;0.20;;;;;;;;;;5067934;28;20048;-88
2022/10/22 07:43:56;;;;;;;0.13;0.08;;;;;;;;;;5065145;28;20048;-87
2022/10/22 07:46:24;;;;;;;0.40;0.40;;;;;;;;;;5068147;28;20071;-87
2022/10/22 07:48:53;;;;;;;0.10;0.10;;;;;;;;;;5058229;28;20041;-87
2022/10/22 07:51:21;;;;;;;0.10;0.10;;;;;;;;;;5065979;28;20052;-88
2022/10/22 07:53:51;;;;;;;0.17;0.17;;;;;;;;;;5062990;28;20049;-88
2022/10/22 07:56:19;;;;;;;0.00;0.00;;;;;;;;;;5065489;28;20140;-87
2022/10/22 07:58:48;;;;;;;0.10;0.10;;;;;;;;;;5067038;28;20049;-87
2022/10/22 08:01:18;;;;;;;0.20;0.10;;;;;;;;;;5062763;28;20504;-87
2022/10/22 08:03:49;;;;;;;0.05;0.03;;;;;;;;;;5066702;28;20436;-88
2022/10/22 08:06:17;;;;;;;0.10;0.10;;;;;;;;;;5067101;28;20057;-87
2022/10/22 08:08:46;;;;;;;0.20;0.10;;;;;;;;;;5061758;28;20080;-88
2022/10/22 08:11:16;;;;;;;0.28;0.17;;;;;;;;;;5062474;28;20044;-87
2022/10/22 08:13:44;;;;;;;0.47;0.22;;;;;;;;;;5064335;28;20050;-88
2022/10/22 08:16:13;;;;;;;0.10;0.10;;;;;;;;;;5063890;28;20045;-87
2022/10/22 08:18:43;;;;;;;0.00;0.00;;;;;;;;;;5067296;28;20060;-87
2022/10/22 08:21:11;;;;;;;0.10;0.10;;;;;;;;;;5065154;28;20060;-88
2022/10/22 08:23:40;;;;;;;0.03;0.03;;;;;;;;;;5065028;28;20463;-87
2022/10/22 08:26:08;;;;;;;3.28;0.20;;;;;;;;;;5066648;28;20130;-88
2022/10/22 08:28:37;;;;;;;0.10;0.10;;;;;;;;;;5063154;28;20045;-86
2022/10/22 08:31:06;;;;;;;0.38;0.10;;;;;;;;;;5066057;28;20044;-88
2022/10/22 08:33:34;;;;;;;0.13;0.13;;;;;;;;;;5064365;28;20455;-89
2022/10/22 08:36:05;;;;;;;0.03;0.03;;;;;;;;;;5047748;28;20094;-86
2022/10/22 08:38:34;;;;;;;0.10;0.10;;;;;;;;;;5066164;28;20049;-88
2022/10/22 08:41:06;;;;;;;0.20;0.20;;;;;;;;;;5060102;28;20128;-88
2022/10/22 08:43:42;;;;;;;0.20;0.10;;;;;;;;;;5066753;28;20044;-88
2022/10/22 08:46:16;;;;;;;0.17;0.17;;;;;;;;;;5066157;28;20045;-88
2022/10/22 08:48:46;;;;;;;0.20;0.10;;;;;;;;;;5065101;28;20052;-88
2022/10/22 08:51:19;;;;;;;0.10;0.10;;;;;;;;;;5065494;28;20052;-86
2022/10/22 08:53:52;;;;;;;0.77;0.30;;;;;;;;;;5066534;28;20106;-87
2022/10/22 08:56:22;;;;;;;0.00;0.00;;;;;;;;;;5066390;28;20060;-87
2022/10/22 08:58:54;;;;;;;0.20;0.20;;;;;;;;;;5057481;28;20052;-88
2022/10/22 09:01:24;;;;;;;0.47;0.30;;;;;;;;;;5060404;28;20063;-88
2022/10/22 09:03:55;;;;;;;0.20;0.10;;;;;;;;;;5060052;28;20055;-88
2022/10/22 09:06:27;;;;;;;0.77;0.30;;;;;;;;;;5066815;28;20052;-87
2022/10/22 09:08:57;;;;;;;0.10;0.10;;;;;;;;;;5044948;28;20055;-87
2022/10/22 09:11:27;;;;;;;0.30;0.13;;;;;;;;;;5066372;28;20123;-88
2022/10/22 09:13:57;;;;;;;0.20;0.20;;;;;;;;;;5063771;28;20132;-88
2022/10/22 09:16:31;;;;;;;0.10;0.10;;;;;;;;;;5063322;28;20074;-88
2022/10/22 09:19:04;;;;;;;1.00;0.10;;;;;;;;;;5063452;28;20086;-88
2022/10/22 09:21:39;;;;;;;0.55;0.38;;;;;;;;;;5043336;28;20154;-88
2022/10/22 09:24:12;;;;;;;0.10;0.10;;;;;;;;;;5062406;28;20064;-88
2022/10/22 09:26:41;;;;;;;0.15;0.15;;;;;;;;;;5071334;28;20048;-87
2022/10/22 09:29:18;;;;;;;0.25;0.17;;;;;;;;;;5063917;28;20049;-88
2022/10/22 09:31:47;;;;;;;1.08;0.55;;;;;;;;;;5067244;28;20058;-87
2022/10/22 09:34:16;;;;;;;0.55;0.10;;;;;;;;;;5068403;28;20056;-88
2022/10/22 09:36:49;;;;;;;0.03;0.03;;;;;;;;;;5066776;28;20055;-89
2022/10/22 09:39:23;;;;;;;0.50;0.20;;;;;;;;;;5072676;28;20392;-89
2022/10/22 09:41:54;;;;;;;0.32;0.30;;;;;;;;;;5066478;28;20051;-89
2022/10/22 09:44:22;;;;;;;0.93;0.60;;;;;;;;;;5066048;28;20098;-90
2022/10/22 09:46:51;;;;;;;0.40;0.20;;;;;;;;;;5071706;28;20044;-88
2022/10/22 09:49:21;;;;;;;2.10;0.20;;;;;;;;;;5066573;28;20053;-88
2022/10/22 09:51:53;;;;;;;2.08;0.20;;;;;;;;;;5066725;28;20131;-85
2022/10/22 09:54:23;;;;;;;0.20;0.20;;;;;;;;;;5069844;28;20040;-87
2022/10/22 09:56:54;;;;;;;0.08;0.08;;;;;;;;;;5050836;28;20653;-88
2022/10/22 09:59:28;;;;;;;0.10;0.10;;;;;;;;;;5070691;28;20048;-88
2022/10/22 10:02:00;;;;;;;0.00;0.00;;;;;;;;;;5065092;28;20481;-88
2022/10/22 10:04:48;;;;;;;0.20;0.10;;;;;;;;;;5071503;28;20037;-90
2022/10/22 10:07:21;;;;;;;0.30;0.10;;;;;;;;;;5066492;28;20569;-88
2022/10/22 10:09:50;;;;;;;1.45;0.13;;;;;;;;;;5067852;28;20053;-89
2022/10/22 10:12:25;;;;;;;2.30;0.57;;;;;;;;;;5066883;28;20094;-89
2022/10/22 10:14:56;;;;;;;0.10;0.10;;;;;;;;;;5066382;28;20049;-91
2022/10/22 10:17:30;;;;;;;0.70;0.20;;;;;;;;;;5068754;28;20044;-88
2022/10/22 10:20:03;;;;;;;0.00;0.00;;;;;;;;;;5067478;28;20162;-89
2022/10/22 10:22:42;;;;;;;0.77;0.30;;;;;;;;;;5067923;28;20083;-90
2022/10/22 10:25:26;;;;;;;0.73;0.10;;;;;;;;;;5066063;28;20044;-87
2022/10/22 10:27:59;;;;;;;0.00;0.00;;;;;;;;;;5068672;28;20048;-88
2022/10/22 10:30:30;;;;;;;0.90;0.15;;;;;;;;;;5067468;28;20060;-89
2022/10/22 10:33:14;;;;;;;0.05;0.05;;;;;;;;;;5066462;28;20520;-85
2022/10/22 10:35:47;;;;;;;0.57;0.30;;;;;;;;;;5063932;28;20060;-85
2022/10/22 10:38:25;;;;;;;0.30;0.10;;;;;;;;;;5075481;28;20393;-88
2022/10/22 10:40:59;;;;;;;0.10;0.10;;;;;;;;;;5073002;28;20049;-88
2022/10/22 10:43:30;;;;;;;0.20;0.10;;;;;;;;;;5075878;28;20079;-88
2022/10/22 10:46:03;;;;;;;0.30;0.10;;;;;;;;;;5068818;28;20040;-88
2022/10/22 10:48:37;;;;;;;0.40;0.40;;;;;;;;;;5060295;28;20482;-88
2022/10/22 10:51:13;;;;;;;1.35;0.10;;;;;;;;;;5053857;28;20055;-88
2022/10/22 10:53:52;;;;;;;0.00;0.00;;;;;;;;;;5060669;28;20056;-86
2022/10/22 10:56:28;;;;;;;0.10;0.10;;;;;;;;;;5068496;28;20048;-88
2022/10/22 10:59:00;;;;;;;0.17;0.17;;;;;;;;;;5062268;28;20053;-88
2022/10/22 11:01:32;;;;;;;0.55;0.13;;;;;;;;;;5071676;28;20408;-87
2022/10/22 11:04:21;;;;;;;0.68;0.10;;;;;;;;;;5060300;28;20056;-87
2022/10/22 11:06:51;;;;;;;0.20;0.20;;;;;;;;;;5072271;28;20053;-87
2022/10/22 11:09:33;;;;;;;0.40;0.40;;;;;;;;;;5071158;28;20045;-87
2022/10/22 11:12:03;;;;;;;0.10;0.10;;;;;;;;;;5060119;28;20113;-87
2022/10/22 11:14:34;;;;;;;0.10;0.10;;;;;;;;;;5056016;28;20048;-87
2022/10/22 11:17:07;;;;;;;0.45;0.10;;;;;;;;;;5056085;28;20068;-87
2022/10/22 11:19:43;;;;;;;0.00;0.00;;;;;;;;;;5071165;28;20052;-87
2022/10/22 11:22:23;;;;;;;0.32;0.30;;;;;;;;;;5064434;28;20080;-87
2022/10/22 11:24:57;;;;;;;0.80;0.80;;;;;;;;;;5047442;28;20053;-89
2022/10/22 11:27:27;;;;;;;0.43;0.15;;;;;;;;;;5068029;28;20628;-87
2022/10/22 11:30:02;;;;;;;0.32;0.17;;;;;;;;;;5065221;28;20051;-87
2022/10/22 11:32:30;;;;;;;0.10;0.10;;;;;;;;;;5069569;28;20044;-89
2022/10/22 11:35:01;;;;;;;0.63;0.50;;;;;;;;;;5063487;28;20056;-87
2022/10/22 11:37:33;;;;;;;0.10;0.10;;;;;;;;;;5062811;28;20156;-87
2022/10/22 11:40:15;;;;;;;0.10;0.10;;;;;;;;;;5069712;28;20044;-89
2022/10/22 11:42:46;;;;;;;0.00;0.00;;;;;;;;;;5068875;28;20499;-88
2022/10/22 11:45:28;;;;;;;0.32;0.30;;;;;;;;;;5068824;28;20045;-88
2022/10/22 11:47:59;;;;;;;0.70;0.32;;;;;;;;;;5058655;28;20044;-87
2022/10/22 11:50:45;;;;;;;0.10;0.10;;;;;;;;;;5064282;28;20056;-89
2022/10/22 11:53:18;;;;;;;0.05;0.05;;;;;;;;;;5057057;28;20044;-87
2022/10/22 11:55:50;;;;;;;0.25;0.10;;;;;;;;;;5063755;28;20045;-87
2022/10/22 11:58:27;;;;;;;0.30;0.15;;;;;;;;;;5060610;28;20473;-87
2022/10/22 12:00:57;;;;;;;0.10;0.10;;;;;;;;;;5067849;28;20037;-88
2022/10/22 12:03:39;;;;;;;0.00;0.00;;;;;;;;;;5049217;28;20044;-87
2022/10/22 12:06:19;;;;;;;0.10;0.10;;;;;;;;;;5066883;28;20048;-88
2022/10/22 12:08:53;;;;;;;0.00;0.00;;;;;;;;;;5066875;28;20048;-87
2022/10/22 12:11:27;;;;;;;0.00;0.00;;;;;;;;;;5068331;28;20491;-85
2022/10/22 12:14:13;;;;;;;0.30;0.25;;;;;;;;;;5065398;28;20493;-87
2022/10/22 12:16:44;;;;;;;0.30;0.30;;;;;;;;;;5054425;28;20112;-87
2022/10/22 12:19:30;;;;;;;0.30;0.10;;;;;;;;;;5067692;28;20126;-90
2022/10/22 12:22:00;;;;;;;1.67;0.40;;;;;;;;;;5067331;28;20048;-87
2022/10/22 12:24:32;;;;;;;1.38;0.13;;;;;;;;;;5064344;28;20509;-88
2022/10/22 12:27:06;;;;;;;0.32;0.10;;;;;;;;;;5068852;28;20516;-87
2022/10/22 12:29:37;;;;;;;0.00;0.00;;;;;;;;;;5072506;28;20134;-87
2022/10/22 12:32:05;;;;;;;0.10;0.10;;;;;;;;;;5071785;28;20056;-87
2022/10/22 12:34:34;;;;;;;0.10;0.00;;;;;;;;;;5072137;28;20053;-87
2022/10/22 12:37:05;;;;;;;0.17;0.13;;;;;;;;;;5072281;28;20481;-87
2022/10/22 12:39:34;;;;;;;0.03;0.00;;;;;;;;;;5061761;28;20049;-88
2022/10/22 12:42:05;;;;;;;0.10;0.10;;;;;;;;;;5057508;28;20063;-87
2022/10/22 12:44:33;;;;;;;0.00;0.00;;;;;;;;;;5070397;28;20092;-87
2022/10/22 12:47:02;;;;;;;0.38;0.10;;;;;;;;;;5070930;28;20044;-87
2022/10/22 12:49:34;;;;;;;2.30;0.30;;;;;;;;;;5056213;28;20052;-85
2022/10/22 12:52:05;;;;;;;0.93;0.20;;;;;;;;;;5067705;28;20060;-88
2022/10/22 12:54:38;;;;;;;0.30;0.17;;;;;;;;;;5071832;28;20466;-89
2022/10/22 12:57:13;;;;;;;0.00;0.00;;;;;;;;;;5071823;28;20041;-88
2022/10/22 12:59:43;;;;;;;0.10;0.10;;;;;;;;;;5041062;28;20049;-86
2022/10/22 13:02:26;;;;;;;0.10;0.10;;;;;;;;;;5070315;28;20098;-87
2022/10/22 13:05:07;;;;;;;0.20;0.20;;;;;;;;;;5075151;28;20049;-85
2022/10/22 13:07:39;;;;;;;0.10;0.10;;;;;;;;;;5072028;28;20045;-88
2022/10/22 13:10:15;;;;;;;0.00;0.00;;;;;;;;;;5057819;28;20056;-87
2022/10/22 13:12:49;;;;;;;0.22;0.13;;;;;;;;;;5071177;28;20063;-86
2022/10/22 13:15:22;;;;;;;0.30;0.10;;;;;;;;;;5060144;28;20135;-86
2022/10/22 13:18:01;;;;;;;0.15;0.10;;;;;;;;;;5041653;28;20523;-87
2022/10/22 13:20:30;;;;;;;0.17;0.17;;;;;;;;;;5060312;28;20060;-87
2022/10/22 13:23:01;;;;;;;2.17;0.10;;;;;;;;;;5057339;28;20053;-89
2022/10/22 13:25:32;;;;;;;0.28;0.10;;;;;;;;;;5065770;28;20045;-88
2022/10/22 13:28:03;;;;;;;0.10;0.10;;;;;;;;;;5066997;28;20417;-87
2022/10/22 13:30:32;;;;;;;0.30;0.10;;;;;;;;;;5066519;28;20045;-85
2022/10/22 13:33:01;;;;;;;0.20;0.20;;;;;;;;;;5060548;28;20044;-88
2022/10/22 13:35:32;;;;;;;0.10;0.10;;;;;;;;;;5064888;28;20056;-86
2022/10/22 13:38:01;;;;;;;0.25;0.25;;;;;;;;;;5067771;28;20066;-86
2022/10/22 13:40:29;;;;;;;0.85;0.10;;;;;;;;;;5060244;28;20481;-87
2022/10/22 13:42:58;;;;;;;3.40;0.20;;;;;;;;;;5066587;28;20052;-87
2022/10/22 13:45:36;;;;;;;0.35;0.10;;;;;;;;;;5064402;28;20044;-86
2022/10/22 13:48:04;;;;;;;0.20;0.10;;;;;;;;;;5044759;28;20052;-87
2022/10/22 13:50:35;;;;;;;0.10;0.10;;;;;;;;;;5063472;28;20045;-86
2022/10/22 13:53:04;;;;;;;0.20;0.20;;;;;;;;;;5065949;28;20040;-86
2022/10/22 13:55:35;;;;;;;0.35;0.10;;;;;;;;;;5063361;28;20101;-87
2022/10/22 13:58:05;;;;;;;0.10;0.10;;;;;;;;;;5062854;28;20060;-86
2022/10/22 14:00:33;;;;;;;0.00;0.00;;;;;;;;;;5065794;28;20056;-86
2022/10/22 14:03:03;;;;;;;0.00;0.00;;;;;;;;;;5058719;28;20048;-86
2022/10/22 14:05:32;;;;;;;0.15;0.15;;;;;;;;;;5064606;28;20053;-87
2022/10/22 14:08:00;;;;;;;0.65;0.17;;;;;;;;;;5065713;28;20045;-88
2022/10/22 14:10:29;;;;;;;0.03;0.03;;;;;;;;;;5067911;28;20056;-87
2022/10/22 14:12:57;;;;;;;0.70;0.30;;;;;;;;;;5069383;28;20040;-87
2022/10/22 14:15:28;;;;;;;0.28;0.28;;;;;;;;;;5067038;28;20052;-87
2022/10/22 14:17:57;;;;;;;3.53;0.32;;;;;;;;;;5066932;28;20759;-88
2022/10/22 14:20:31;;;;;;;0.20;0.20;;;;;;;;;;5066923;28;20105;-87
2022/10/22 14:23:03;;;;;;;0.10;0.10;;;;;;;;;;5064812;28;20057;-88
2022/10/22 14:25:31;;;;;;;0.10;0.10;;;;;;;;;;5066790;28;20052;-88
2022/10/22 14:27:59;;;;;;;0.13;0.13;;;;;;;;;;5064996;28;20477;-88
2022/10/22 14:30:29;;;;;;;0.00;0.00;;;;;;;;;;5066275;28;20044;-87
2022/10/22 14:32:58;;;;;;;0.80;0.10;;;;;;;;;;5068747;28;20233;-87
2022/10/22 14:35:27;;;;;;;0.03;0.03;;;;;;;;;;5069114;28;20052;-87
2022/10/22 14:37:57;;;;;;;0.38;0.38;;;;;;;;;;5065770;28;20049;-87
2022/10/22 14:40:25;;;;;;;0.38;0.10;;;;;;;;;;5069363;28;20098;-87
2022/10/22 14:42:56;;;;;;;0.45;0.17;;;;;;;;;;5061059;28;20049;-87
2022/10/22 14:45:25;;;;;;;0.10;0.10;;;;;;;;;;5066801;28;20098;-88
2022/10/22 14:47:54;;;;;;;0.00;0.00;;;;;;;;;;5072169;28;20094;-88
2022/10/22 14:50:23;;;;;;;1.00;0.10;;;;;;;;;;5070898;28;20068;-87
2022/10/22 14:52:51;;;;;;;0.40;0.38;;;;;;;;;;5067401;28;20068;-87
2022/10/22 14:55:22;;;;;;;0.00;0.00;;;;;;;;;;5055681;28;20107;-87
2022/10/22 14:57:50;;;;;;;1.38;0.20;;;;;;;;;;5046498;28;20047;-87
2022/10/22 15:00:19;;;;;;;0.10;0.10;;;;;;;;;;5073815;28;20404;-87
2022/10/22 15:02:48;;;;;;;0.20;0.20;;;;;;;;;;5065493;28;20500;-87